createdAt,value
2019-05-19T10:12:32.406Z,7444
2019-05-19T10:13:30.954Z,8328
2019-05-19T10:14:29.832Z,8780
2019-05-19T10:15:28.436Z,8900
2019-05-19T10:19:07.695Z,7688
2019-05-19T10:20:06.251Z,7428
2019-05-19T10:47:10.032Z,7160
2019-05-19T10:48:08.611Z,7484
2019-05-19T10:49:07.406Z,7488
2019-05-19T10:52:46.262Z,7376
2019-05-19T10:53:44.867Z,7244
2019-05-19T10:54:43.505Z,7020
2019-05-19T10:55:42.107Z,6828
2019-05-19T10:58:22.397Z,6436
2019-05-19T10:59:21.017Z,6400
2019-05-19T11:02:02.619Z,6572
2019-05-19T11:03:01.191Z,6268
2019-05-19T11:04:00.066Z,6368
2019-05-19T11:04:58.704Z,5828
2019-05-19T11:05:57.302Z,6108
2019-05-19T11:06:56.021Z,6832
2019-05-19T11:07:54.606Z,6676
2019-05-19T11:08:53.250Z,6996
2019-05-19T11:09:52.350Z,7012
2019-05-19T11:10:50.968Z,6992
2019-05-19T11:11:49.757Z,6464
2019-05-19T11:12:49.110Z,6300
2019-05-19T11:13:47.904Z,6004
2019-05-19T11:16:28.210Z,5704
2019-05-19T11:17:26.866Z,6080
2019-05-19T11:18:25.433Z,5732
2019-05-19T11:19:24.102Z,5684
2019-05-19T11:46:30.531Z,5280
2019-05-19T11:49:10.964Z,6420
2019-05-19T11:53:32.950Z,6324
2019-05-19T11:54:31.680Z,5824
2019-05-19T11:57:11.777Z,5456
2019-05-19T11:58:10.694Z,5296
2019-05-19T11:59:09.334Z,5344
2019-05-19T12:01:49.811Z,6340
2019-05-19T12:02:48.424Z,6488
2019-05-19T12:05:28.793Z,6372
2019-05-19T12:08:08.906Z,6152
2019-05-19T12:12:30.911Z,5520
2019-05-19T12:17:08.331Z,5392
2019-05-19T12:19:33.102Z,5576
2019-05-19T12:20:31.872Z,5128
2019-05-19T12:21:30.559Z,5108
2019-05-19T12:22:29.187Z,4848
2019-05-19T12:24:26.342Z,5144
2019-05-19T12:25:24.941Z,4920
2019-05-19T12:26:24.320Z,5028
2019-05-19T12:27:22.916Z,5132
2019-05-19T12:28:21.504Z,5380
2019-05-19T12:29:20.133Z,5380
2019-05-19T12:30:18.914Z,5620
2019-05-19T12:31:17.592Z,5512
2019-05-19T12:32:16.452Z,5512
2019-05-19T12:33:15.113Z,5608
2019-05-19T12:34:13.687Z,5584
2019-05-19T12:35:12.414Z,5516
2019-05-19T12:36:11.191Z,5700
2019-05-19T12:37:09.773Z,5416
2019-05-19T12:38:08.507Z,5416
2019-05-19T12:39:07.096Z,5540
2019-05-19T12:40:05.705Z,4968
2019-05-19T12:41:04.543Z,4892
2019-05-19T12:42:03.235Z,4600
2019-05-19T12:43:02.052Z,4260
2019-05-19T12:44:00.585Z,3960
2019-05-19T12:44:59.250Z,3668
2019-05-19T12:45:58.896Z,3632
2019-05-19T12:46:57.326Z,3732
2019-05-19T12:47:57.012Z,3744
2019-05-19T12:48:56.498Z,3640
2019-05-19T12:49:56.232Z,3616
2019-05-19T12:50:55.000Z,3808
2019-05-19T12:51:53.695Z,3820
2019-05-19T12:52:53.271Z,3924
2019-05-19T12:53:51.872Z,3836
2019-05-19T12:54:50.624Z,3932
2019-05-19T12:55:49.295Z,4192
2019-05-19T12:56:48.220Z,3932
2019-05-19T12:57:48.473Z,3708
2019-05-19T12:58:46.978Z,3944
2019-05-19T12:59:45.651Z,3780
2019-05-19T13:00:44.295Z,4008
2019-05-19T13:01:43.131Z,3884
2019-05-19T13:02:42.935Z,3752
2019-05-19T13:03:40.751Z,4000
2019-05-19T13:04:39.512Z,4140
2019-05-19T13:05:39.884Z,4140
2019-05-19T13:06:38.752Z,4100
2019-05-19T13:07:38.928Z,4428
2019-05-19T13:08:36.625Z,4276
2019-05-19T13:09:37.640Z,4260
2019-05-19T13:12:20.877Z,4504
2019-05-19T13:15:05.325Z,4840
2019-05-19T13:16:35.241Z,4824
2019-05-19T13:19:16.028Z,4092
2019-05-19T13:24:08.856Z,4088
2019-05-19T13:29:19.927Z,4104
2019-05-19T13:34:41.754Z,4016
2019-05-19T13:39:03.955Z,4016
2019-05-19T13:46:33.892Z,3816
2019-05-19T13:51:24.509Z,3992
2019-05-19T13:52:24.471Z,3900
2019-05-19T13:56:05.269Z,4644
2019-05-19T13:57:12.075Z,4612
2019-05-19T13:58:03.591Z,4680
2019-05-19T13:59:01.683Z,4872
2019-05-19T14:03:33.815Z,4896
2019-05-19T14:04:32.532Z,4984
2019-05-19T14:05:31.143Z,5028
2019-05-19T14:06:29.918Z,5192
2019-05-19T14:07:28.638Z,5248
2019-05-19T14:08:27.287Z,5176
2019-05-19T14:09:26.002Z,5340
2019-05-19T14:10:24.738Z,5388
2019-05-19T14:11:23.402Z,5664
2019-05-19T14:12:22.055Z,5252
2019-05-19T14:13:20.871Z,4572
2019-05-19T14:14:19.513Z,4500
2019-05-19T14:15:18.177Z,4488
2019-05-19T14:16:16.879Z,4496
2019-05-19T14:17:15.604Z,4348
2019-05-19T14:18:14.398Z,3852
2019-05-19T14:19:13.048Z,4068
2019-05-19T14:20:12.045Z,3740
2019-05-19T14:22:52.461Z,3980
2019-05-19T14:25:33.065Z,4068
2019-05-19T14:26:31.742Z,3864
2019-05-19T14:29:05.753Z,3560
2019-05-19T14:30:05.519Z,3560
2019-05-19T14:31:04.115Z,3516
2019-05-19T14:34:43.117Z,3276
2019-05-19T14:35:41.807Z,3212
2019-05-19T14:36:40.502Z,3148
2019-05-19T14:37:39.190Z,3096
2019-05-19T14:38:37.848Z,2948
2019-05-19T14:39:36.834Z,2672
2019-05-19T14:45:41.495Z,2692
2019-05-19T14:48:21.656Z,2632
2019-05-19T14:49:20.377Z,2620
2019-05-19T14:50:19.505Z,2616
2019-05-19T14:51:18.252Z,2652
2019-05-19T14:54:12.248Z,2664
2019-05-19T14:55:11.325Z,2676
2019-05-19T14:56:10.896Z,2620
2019-05-19T14:57:10.093Z,2616
2019-05-19T14:58:09.281Z,2616
2019-05-19T14:59:08.764Z,2596
2019-05-19T15:00:08.310Z,2552
2019-05-19T15:02:39.874Z,2388
2019-05-19T15:03:38.942Z,2312
2019-05-19T15:06:06.358Z,2152
2019-05-19T15:07:05.801Z,2112
2019-05-19T15:15:42.068Z,1904
2019-05-19T15:19:11.209Z,1956
2019-05-19T15:20:10.466Z,2028
2019-05-19T15:21:10.058Z,2140
2019-05-19T15:22:09.063Z,2280
2019-05-19T15:23:08.235Z,2432
2019-05-19T15:24:08.669Z,2596
2019-05-19T15:25:08.286Z,2760
2019-05-19T15:26:07.853Z,2904
2019-05-19T15:27:08.562Z,3036
2019-05-19T15:28:07.584Z,3112
2019-05-19T15:29:07.251Z,3200
2019-05-19T15:30:12.738Z,3312
2019-05-19T15:31:05.616Z,3372
2019-05-19T15:32:06.572Z,3424
2019-05-19T15:33:05.580Z,3444
2019-05-19T15:34:07.240Z,3452
2019-05-19T15:36:25.967Z,3400
2019-05-19T15:37:25.964Z,3356
2019-05-19T15:38:27.434Z,3292
2019-05-19T15:39:26.207Z,3220
2019-05-19T15:40:26.877Z,3152
2019-05-19T15:41:25.867Z,3064
2019-05-19T15:42:25.452Z,2996
2019-05-19T15:43:26.223Z,2908
2019-05-19T15:46:35.828Z,2640
2019-05-19T15:47:35.368Z,2560
2019-05-19T15:48:35.043Z,2472
2019-05-19T15:49:38.111Z,2380
2019-05-19T15:50:38.049Z,2300
2019-05-19T15:51:38.045Z,2216
2019-05-19T15:52:38.797Z,2132
2019-05-19T15:56:26.952Z,1864
2019-05-19T15:57:28.457Z,1800
2019-05-19T15:58:25.124Z,1732
2019-05-19T15:59:24.883Z,1672
2019-05-19T16:00:24.833Z,1620
2019-05-19T16:01:23.493Z,1576
2019-05-19T16:02:22.311Z,1536
2019-05-19T16:03:20.899Z,1496
2019-05-19T16:04:20.335Z,1456
2019-05-19T16:05:19.443Z,1428
2019-05-19T16:06:18.308Z,1408
2019-05-19T16:07:16.871Z,1388
2019-05-19T16:08:16.053Z,1364
2019-05-19T16:09:14.737Z,1356
2019-05-19T16:10:13.393Z,1344
2019-05-19T16:11:12.042Z,1348
2019-05-19T16:12:11.012Z,1340
2019-05-19T16:13:09.764Z,1340
2019-05-19T16:14:09.426Z,1344
2019-05-19T16:15:08.124Z,1348
2019-05-19T16:16:06.954Z,1344
2019-05-19T16:17:05.641Z,1344
2019-05-19T16:18:04.433Z,1348
2019-05-19T16:20:46.880Z,1356
2019-05-19T16:21:45.482Z,1360
2019-05-19T16:22:44.297Z,1368
2019-05-19T16:23:42.898Z,1372
2019-05-19T16:24:41.536Z,1380
2019-05-19T16:25:40.535Z,1396
2019-05-19T16:26:39.349Z,1408
2019-05-19T16:27:38.161Z,1420
2019-05-19T16:28:36.566Z,1436
2019-05-19T16:29:35.152Z,1452
2019-05-19T16:30:33.963Z,1464
2019-05-19T16:31:32.608Z,1480
2019-05-19T16:32:31.269Z,1504
2019-05-19T16:33:30.636Z,1516
2019-05-19T16:34:29.426Z,1532
2019-05-19T16:35:28.063Z,1540
2019-05-19T16:36:27.695Z,1548
2019-05-19T16:37:26.808Z,1544
2019-05-19T16:38:25.835Z,1544
2019-05-19T16:39:24.434Z,1544
2019-05-19T16:42:05.023Z,1552
2019-05-19T16:43:06.030Z,1556
2019-05-19T17:10:41.886Z,1900
2019-05-19T17:11:40.269Z,1904
2019-05-19T17:12:38.925Z,1912
2019-05-19T17:13:37.691Z,1928
2019-05-19T17:14:36.480Z,1932
2019-05-19T17:15:35.435Z,1972
2019-05-19T17:16:34.019Z,1972
2019-05-19T17:17:33.230Z,2000
2019-05-19T17:18:31.864Z,2028
2019-05-19T17:19:30.694Z,2068
2019-05-19T17:20:30.957Z,2108
2019-05-19T17:21:27.912Z,2152
2019-05-19T17:24:08.312Z,2264
2019-05-19T17:25:07.067Z,2304
2019-05-19T17:26:05.991Z,2332
2019-05-19T17:27:04.645Z,2356
2019-05-19T17:34:56.348Z,2484
2019-05-19T17:35:54.956Z,2488
2019-05-19T17:36:53.743Z,2496
2019-05-19T17:37:52.470Z,2508
2019-05-19T17:38:51.159Z,2504
2019-05-19T17:43:47.119Z,2572
2019-05-19T17:44:47.185Z,2592
2019-05-19T17:45:47.742Z,2580
2019-05-19T17:48:09.853Z,2508
2019-05-19T17:49:02.314Z,2456
2019-05-19T17:50:01.057Z,2400
2019-05-19T17:50:59.971Z,2332
2019-05-19T17:51:58.839Z,2264
2019-05-19T17:52:58.445Z,2196
2019-05-19T17:53:56.300Z,2124
2019-05-19T17:54:54.986Z,2048
2019-05-19T17:55:53.585Z,1968
2019-05-19T17:56:52.381Z,1908
2019-05-19T17:57:51.191Z,1864
2019-05-19T17:58:50.104Z,1824
2019-05-19T17:59:48.856Z,1780
2019-05-19T18:00:47.547Z,1740
2019-05-19T18:01:46.549Z,1700
2019-05-19T18:02:45.219Z,1656
2019-05-19T18:03:44.035Z,1620
2019-05-19T18:04:44.467Z,1584
2019-05-19T18:05:43.372Z,1544
2019-05-19T18:06:42.080Z,1508
2019-05-19T18:07:41.937Z,1476
2019-05-19T18:08:39.763Z,1444
2019-05-19T18:09:38.820Z,1412
2019-05-19T18:10:38.163Z,1380
2019-05-19T18:11:37.135Z,1352
2019-05-19T18:12:36.556Z,1328
2019-05-19T18:13:35.312Z,1296
2019-05-19T18:14:34.246Z,1260
2019-05-19T18:15:33.639Z,1224
2019-05-19T18:16:32.582Z,1192
2019-05-19T18:17:31.363Z,1164
2019-05-19T18:18:30.229Z,1140
2019-05-19T18:19:29.633Z,1108
2019-05-19T18:20:28.428Z,1080
2019-05-19T18:21:27.224Z,1056
2019-05-19T18:22:25.776Z,1032
2019-05-19T18:23:25.321Z,1008
2019-05-19T18:24:24.151Z,988
2019-05-19T18:25:23.015Z,968
2019-05-19T18:26:22.270Z,952
2019-05-19T18:27:21.220Z,936
2019-05-19T18:28:19.877Z,912
2019-05-19T18:29:30.421Z,892
2019-05-19T18:30:17.352Z,868
2019-05-19T18:31:16.123Z,848
2019-05-19T18:32:15.183Z,832
2019-05-19T18:34:55.570Z,768
2019-05-19T18:35:54.327Z,740
2019-05-19T18:36:53.112Z,708
2019-05-19T18:37:51.853Z,672
2019-05-19T18:38:50.691Z,640
2019-05-19T18:39:49.444Z,604
2019-05-19T18:40:48.225Z,564
2019-05-19T18:41:47.003Z,524
2019-05-19T18:42:45.848Z,472
2019-05-19T18:43:44.651Z,424
2019-05-19T18:46:28.929Z,296
2019-05-19T18:47:27.763Z,256
2019-05-19T18:48:26.782Z,224
2019-05-19T18:52:31.330Z,132
2019-05-19T18:55:19.878Z,100
2019-05-19T18:56:19.116Z,92
2019-05-19T18:57:18.240Z,88
2019-05-19T18:58:17.149Z,80
2019-05-19T18:59:17.126Z,72
2019-05-19T19:03:29.709Z,48
2019-05-19T19:04:29.238Z,40
2019-05-19T19:05:28.170Z,36
2019-05-19T19:08:27.713Z,28
2019-05-19T19:09:27.026Z,24
2019-05-19T19:10:25.843Z,20
2019-05-19T19:11:24.999Z,20
2019-05-19T19:14:05.354Z,16
2019-05-19T19:15:04.339Z,12
2019-05-19T19:16:03.822Z,12
2019-05-19T19:17:03.733Z,8
2019-05-19T19:18:03.938Z,8
2019-05-19T19:19:03.176Z,8
2019-05-19T19:20:01.823Z,8
2019-05-19T19:21:01.738Z,8
2019-05-19T19:22:00.094Z,8
2019-05-19T19:22:59.431Z,4
2019-05-19T19:24:00.081Z,8
2019-05-19T19:24:58.985Z,4
2019-05-19T19:27:39.544Z,4
2019-05-19T19:28:39.173Z,4
2019-05-19T19:29:39.171Z,0
2019-05-19T19:30:37.929Z,4
2019-05-19T19:31:47.968Z,4
2019-05-19T19:32:37.945Z,4
2019-05-19T19:33:37.932Z,0
2019-05-19T19:36:14.824Z,0
2019-05-19T19:37:14.651Z,0
2019-05-19T19:38:13.404Z,0
2019-05-19T19:39:12.716Z,0
2019-05-19T19:40:13.269Z,0
2019-05-19T19:41:12.183Z,0
2019-05-19T19:42:11.072Z,0
2019-05-19T19:43:09.944Z,0
2019-05-19T19:44:08.811Z,0
2019-05-19T19:45:07.306Z,0
2019-05-19T19:46:06.231Z,0
2019-05-19T19:47:06.268Z,0
2019-05-19T19:48:05.976Z,0
2019-05-19T19:49:05.499Z,0
2019-05-19T19:50:04.878Z,0
2019-05-19T19:51:03.648Z,0
2019-05-19T19:52:04.521Z,0
2019-05-19T19:53:03.864Z,0
2019-05-19T19:54:02.418Z,0
2019-05-19T19:55:01.225Z,0
2019-05-19T19:56:01.490Z,0
2019-05-19T19:57:00.618Z,0
2019-05-19T19:57:59.327Z,0
2019-05-19T19:58:58.937Z,0
2019-05-19T19:59:57.697Z,0
2019-05-19T20:00:57.354Z,0
2019-05-19T20:01:56.867Z,0
2019-05-19T20:05:36.974Z,0
2019-05-19T20:06:37.505Z,0
2019-05-19T20:07:35.318Z,0
2019-05-19T20:08:34.857Z,0
2019-05-19T20:09:36.011Z,0
2019-05-19T20:10:37.067Z,0
2019-05-19T20:11:35.225Z,0
2019-05-19T20:12:34.548Z,0
2019-05-19T20:13:36.588Z,0
2019-05-19T20:14:34.145Z,0
2019-05-19T20:15:33.051Z,0
2019-05-19T20:16:32.509Z,0
2019-05-19T20:17:32.587Z,0
2019-05-19T20:18:32.809Z,0
2019-05-19T20:19:31.816Z,0
2019-05-19T20:20:30.647Z,0
2019-05-19T20:21:30.597Z,0
2019-05-19T20:22:28.962Z,0
2019-05-19T20:23:28.632Z,0
2019-05-19T20:24:28.583Z,0
2019-05-19T20:25:27.252Z,0
2019-05-19T20:26:26.179Z,0
2019-05-19T20:27:25.568Z,0
2019-05-19T20:28:23.987Z,0
2019-05-19T20:29:22.817Z,0
2019-05-19T20:30:34.114Z,0
2019-05-19T20:31:20.715Z,0
2019-05-19T20:32:19.786Z,0
2019-05-19T20:33:18.402Z,0
2019-05-19T20:34:18.407Z,0
2019-05-19T20:35:17.295Z,0
2019-05-19T20:36:16.064Z,0
2019-05-19T20:37:15.273Z,0
2019-05-19T20:38:13.787Z,0
2019-05-19T20:39:12.482Z,0
2019-05-19T20:40:12.307Z,0
2019-05-19T20:41:11.050Z,0
2019-05-19T20:42:10.167Z,0
2019-05-19T20:43:08.816Z,0
2019-05-19T20:44:07.389Z,0
2019-05-19T20:45:06.025Z,0
2019-05-19T20:46:05.570Z,0
2019-05-19T20:47:04.471Z,0
2019-05-19T20:48:03.731Z,0
2019-05-19T20:49:02.497Z,0
2019-05-19T20:50:01.137Z,0
2019-05-19T20:51:00.064Z,0
2019-05-19T20:51:58.840Z,0
2019-05-19T20:52:57.874Z,0
2019-05-19T20:53:56.745Z,0
2019-05-19T20:54:55.401Z,0
2019-05-19T20:55:54.311Z,0
2019-05-19T20:56:52.918Z,0
2019-05-19T20:57:51.538Z,0
2019-05-19T20:58:50.259Z,0
2019-05-19T20:59:49.038Z,0
2019-05-19T21:00:50.302Z,0
2019-05-19T21:01:46.412Z,0
2019-05-19T21:02:45.128Z,0
2019-05-19T21:03:43.790Z,0
2019-05-19T21:04:42.987Z,0
2019-05-19T21:05:41.618Z,0
2019-05-19T21:06:40.214Z,0
2019-05-19T21:07:39.392Z,0
2019-05-19T21:08:38.144Z,0
2019-05-19T21:09:36.736Z,0
2019-05-19T21:10:35.433Z,0
2019-05-19T21:11:34.241Z,0
2019-05-19T21:12:32.930Z,0
2019-05-19T21:13:31.481Z,0
2019-05-19T21:14:30.154Z,0
2019-05-19T21:15:28.968Z,0
2019-05-19T21:16:27.499Z,0
2019-05-19T21:17:26.374Z,0
2019-05-19T21:18:25.066Z,0
2019-05-19T21:19:23.735Z,0
2019-05-19T21:22:04.261Z,0
2019-05-19T21:23:03.040Z,0
2019-05-19T21:24:01.748Z,0
2019-05-19T21:26:36.835Z,0
2019-05-19T21:27:35.355Z,0
2019-05-19T21:28:33.967Z,0
2019-05-19T21:29:32.643Z,0
2019-05-19T21:30:31.270Z,0
2019-05-19T21:31:29.957Z,0
2019-05-19T21:32:28.590Z,0
2019-05-19T21:33:27.217Z,0
2019-05-19T21:34:25.783Z,0
2019-05-19T21:35:24.331Z,0
2019-05-19T21:39:03.038Z,0
2019-05-19T21:40:01.780Z,0
2019-05-19T21:41:00.459Z,0
2019-05-19T21:41:59.088Z,0
2019-05-19T21:42:57.683Z,0
2019-05-19T21:43:56.542Z,0
2019-05-19T21:44:55.219Z,0
2019-05-19T21:45:53.868Z,0
2019-05-19T21:46:52.639Z,0
2019-05-19T21:47:51.438Z,0
2019-05-19T21:48:50.088Z,0
2019-05-19T22:07:06.227Z,0
2019-05-19T22:08:05.083Z,0
2019-05-19T22:09:03.802Z,0
2019-05-19T22:10:02.880Z,0
2019-05-19T22:11:04.363Z,0
2019-05-19T22:12:00.014Z,0
2019-05-19T22:12:58.791Z,0
2019-05-19T22:13:57.420Z,0
2019-05-19T22:14:55.958Z,0
2019-05-19T22:16:10.129Z,0
2019-05-19T22:16:53.411Z,0
2019-05-19T22:17:52.016Z,0
2019-05-19T22:18:50.657Z,0
2019-05-19T22:19:49.296Z,0
2019-05-19T22:20:48.076Z,0
2019-05-19T22:21:47.078Z,0
2019-05-19T22:22:46.246Z,0
2019-05-19T22:23:44.948Z,0
2019-05-19T22:24:43.855Z,0
2019-05-19T22:25:42.653Z,0
2019-05-19T22:28:22.989Z,0
2019-05-19T22:29:21.560Z,0
2019-05-19T22:30:20.121Z,0
2019-05-19T22:31:18.963Z,0
2019-05-19T22:32:17.523Z,0
2019-05-19T22:33:16.201Z,0
2019-05-19T22:34:14.875Z,0
2019-05-19T22:35:13.578Z,0
2019-05-19T22:36:12.134Z,0
2019-05-19T22:37:10.694Z,0
2019-05-19T22:38:09.676Z,0
2019-05-19T22:39:07.865Z,0
2019-05-19T22:40:06.719Z,0
2019-05-19T22:41:05.327Z,0
2019-05-19T22:42:03.951Z,0
2019-05-19T22:43:02.664Z,0
2019-05-19T22:44:01.257Z,0
2019-05-19T22:44:59.864Z,0
2019-05-19T22:45:58.812Z,0
2019-05-19T22:46:57.402Z,0
2019-05-19T22:47:55.960Z,0
2019-05-19T22:48:54.778Z,0
2019-05-19T22:49:53.517Z,0
2019-05-19T22:50:52.339Z,0
2019-05-19T22:51:51.081Z,0
2019-05-19T22:52:49.895Z,0
2019-05-19T22:53:48.448Z,0
2019-05-19T22:54:47.088Z,0
2019-05-19T22:55:45.720Z,0
2019-05-19T22:56:44.429Z,0
2019-05-19T22:57:43.183Z,0
2019-05-19T22:58:41.794Z,0
2019-05-19T22:59:40.467Z,0
2019-05-19T23:00:38.987Z,0
2019-05-19T23:01:50.927Z,0
2019-05-19T23:02:36.184Z,0
2019-05-19T23:03:35.009Z,0
2019-05-19T23:04:33.554Z,0
2019-05-19T23:05:32.383Z,0
2019-05-19T23:06:30.986Z,0
2019-05-19T23:07:29.545Z,0
2019-05-19T23:08:28.139Z,0
2019-05-19T23:09:26.792Z,0
2019-05-19T23:10:25.341Z,0
2019-05-19T23:11:23.901Z,0
2019-05-19T23:12:22.692Z,0
2019-05-19T23:13:21.306Z,0
2019-05-19T23:14:19.923Z,0
2019-05-19T23:15:18.560Z,0
2019-05-19T23:16:17.235Z,0
2019-05-19T23:17:15.776Z,0
2019-05-19T23:18:14.727Z,0
2019-05-19T23:19:13.264Z,0
2019-05-19T23:20:11.823Z,0
2019-05-19T23:21:10.525Z,0
2019-05-19T23:22:09.127Z,0
2019-05-19T23:23:07.731Z,0
2019-05-19T23:24:06.283Z,0
2019-05-19T23:25:05.066Z,0
2019-05-19T23:26:03.621Z,0
2019-05-19T23:27:02.213Z,0
2019-05-19T23:28:00.860Z,0
2019-05-19T23:28:59.411Z,0
2019-05-19T23:29:58.036Z,0
2019-05-19T23:30:56.853Z,0
2019-05-19T23:32:06.560Z,0
2019-05-19T23:32:53.960Z,0
2019-05-19T23:33:52.479Z,0
2019-05-19T23:34:51.095Z,0
2019-05-19T23:35:49.711Z,0
2019-05-19T23:36:48.473Z,0
2019-05-19T23:37:47.183Z,0
2019-05-19T23:38:45.747Z,0
2019-05-19T23:39:44.543Z,0
2019-05-19T23:40:43.077Z,0
2019-05-19T23:41:41.677Z,0
2019-05-19T23:42:40.351Z,0
2019-05-19T23:43:38.934Z,0
2019-05-19T23:44:37.568Z,0
2019-05-19T23:45:36.272Z,0
2019-05-19T23:46:34.931Z,0
2019-05-19T23:47:33.493Z,0
2019-05-19T23:48:32.165Z,0
2019-05-19T23:49:30.747Z,0
2019-05-19T23:50:29.353Z,0
2019-05-19T23:51:27.917Z,0
2019-05-19T23:52:26.867Z,0
2019-05-19T23:53:25.469Z,0
2019-05-19T23:54:24.249Z,0
2019-05-19T23:55:22.896Z,0
2019-05-19T23:56:21.447Z,0
2019-05-19T23:57:20.002Z,0
2019-05-19T23:58:18.775Z,0
2019-05-19T23:59:17.356Z,0
